Time;durP1;ratioP1;P1;durP2;ratioP2;P2;SDS_P1;SDS_P2;PMS_P1;PMS_P2;Temp;Humidity;BMP_temperature;BMP_pressure;BME280_temperature;BME280_humidity;BME280_pressure;Samples;Min_cycle;Max_cycle;Signal;HPM_P1;HPM_P2
2023/11/09 00:01:31;;;;;;;103.80;19.25;;;10.40;93.60;;;;;;5028449;28;20056;-58
2023/11/09 00:03:57;;;;;;;97.03;17.27;;;10.40;93.70;;;;;;5038458;28;20121;-58
2023/11/09 00:06:22;;;;;;;85.05;17.92;;;10.40;93.70;;;;;;5027526;28;20081;-57
2023/11/09 00:08:48;;;;;;;106.43;18.70;;;10.40;93.70;;;;;;5057019;28;20044;-57
2023/11/09 00:11:14;;;;;;;105.43;18.30;;;10.30;93.70;;;;;;5046110;28;20355;-57
2023/11/09 00:13:40;;;;;;;95.97;16.50;;;10.30;93.70;;;;;;5047017;28;20060;-58
2023/11/09 00:16:06;;;;;;;94.38;16.60;;;10.30;93.70;;;;;;5047232;28;20021;-58
2023/11/09 00:18:31;;;;;;;83.82;16.60;;;10.30;93.70;;;;;;5045962;28;20052;-57
2023/11/09 00:20:58;;;;;;;75.88;16.90;;;10.30;93.70;;;;;;5032901;28;20026;-57
2023/11/09 00:23:23;;;;;;;71.57;15.32;;;10.30;93.70;;;;;;5025821;28;20088;-58
2023/11/09 00:25:49;;;;;;;71.20;15.95;;;10.20;93.70;;;;;;5025915;28;20030;-57
2023/11/09 00:28:16;;;;;;;67.47;15.55;;;10.20;93.70;;;;;;5025937;28;20034;-57
2023/11/09 00:30:43;;;;;;;95.20;15.65;;;10.20;93.70;;;;;;5025831;28;20040;-54
2023/11/09 00:33:09;;;;;;;82.63;15.75;;;10.20;93.70;;;;;;5025657;28;20022;-58
2023/11/09 00:35:34;;;;;;;70.60;15.45;;;10.20;93.70;;;;;;5042217;28;20030;-58
2023/11/09 00:38:02;;;;;;;79.00;15.45;;;10.10;93.70;;;;;;5041989;28;20038;-58
2023/11/09 00:40:28;;;;;;;74.07;14.60;;;10.10;93.70;;;;;;5041726;28;20030;-58
2023/11/09 00:42:53;;;;;;;71.15;14.38;;;10.10;93.70;;;;;;5042323;28;20026;-58
2023/11/09 00:45:19;;;;;;;60.40;13.63;;;10.20;93.70;;;;;;5026906;28;20041;-57
2023/11/09 00:47:45;;;;;;;61.38;12.85;;;10.00;93.70;;;;;;5042078;28;20029;-57
2023/11/09 00:50:12;;;;;;;58.47;13.23;;;10.00;93.70;;;;;;5026461;28;20481;-57
2023/11/09 00:52:37;;;;;;;71.82;13.27;;;10.00;93.70;;;;;;5026707;28;20034;-58
2023/11/09 00:55:03;;;;;;;55.42;13.38;;;10.00;93.70;;;;;;5025458;28;20485;-57
2023/11/09 00:57:31;;;;;;;74.80;13.13;;;10.00;93.70;;;;;;5026736;28;20470;-57
2023/11/09 00:59:58;;;;;;;60.55;12.70;;;10.00;93.70;;;;;;5041275;28;20088;-57
2023/11/09 01:02:23;;;;;;;61.97;12.02;;;9.90;93.70;;;;;;5026634;28;20084;-57
2023/11/09 01:04:49;;;;;;;57.75;12.35;;;9.90;93.80;;;;;;5024987;28;20026;-57
2023/11/09 01:07:14;;;;;;;56.95;11.98;;;9.90;93.80;;;;;;5040054;28;20032;-58
2023/11/09 01:09:40;;;;;;;51.45;11.60;;;9.90;93.80;;;;;;5026657;28;20028;-57
2023/11/09 01:12:06;;;;;;;56.92;11.20;;;9.90;93.80;;;;;;5041821;28;20108;-58
2023/11/09 01:14:32;;;;;;;49.85;10.80;;;9.80;93.80;;;;;;5025639;28;20431;-57
2023/11/09 01:16:57;;;;;;;45.45;10.32;;;9.80;93.80;;;;;;5025482;28;20033;-56
2023/11/09 01:19:23;;;;;;;50.30;11.57;;;9.80;93.70;;;;;;5026519;28;20394;-57
2023/11/09 01:21:48;;;;;;;52.88;11.68;;;9.80;93.70;;;;;;5026528;28;20088;-57
2023/11/09 01:24:14;;;;;;;48.17;10.98;;;9.80;93.70;;;;;;5026104;28;20044;-57
2023/11/09 01:26:40;;;;;;;57.92;10.00;;;9.70;93.70;;;;;;5025326;28;20018;-57
2023/11/09 01:29:06;;;;;;;52.20;10.48;;;9.70;93.70;;;;;;5025059;28;20053;-57
2023/11/09 01:31:32;;;;;;;62.67;10.68;;;9.70;93.80;;;;;;5041474;28;20025;-57
2023/11/09 01:33:57;;;;;;;41.42;10.50;;;9.70;93.80;;;;;;5025048;28;20030;-57
2023/11/09 01:36:23;;;;;;;41.67;9.88;;;9.70;93.80;;;;;;5041701;28;20042;-57
2023/11/09 01:38:49;;;;;;;43.65;9.82;;;9.70;93.80;;;;;;5041429;28;20030;-58
2023/11/09 01:41:14;;;;;;;40.03;8.93;;;9.60;93.80;;;;;;5041324;28;20081;-57
2023/11/09 01:43:40;;;;;;;42.58;8.88;;;9.60;93.80;;;;;;5026208;28;20379;-57
2023/11/09 01:46:06;;;;;;;36.55;9.75;;;9.60;93.80;;;;;;5026269;28;20048;-57
2023/11/09 01:48:35;;;;;;;51.30;9.95;;;9.60;93.70;;;;;;5041563;28;20122;-58
2023/11/09 01:51:01;;;;;;;37.20;8.98;;;9.60;93.70;;;;;;5024302;28;20030;-58
2023/11/09 01:53:27;;;;;;;38.42;8.60;;;9.60;93.70;;;;;;5041345;28;20030;-57
2023/11/09 01:55:52;;;;;;;35.22;9.73;;;9.50;93.70;;;;;;5041462;28;20482;-57
2023/11/09 01:58:18;;;;;;;46.03;9.15;;;9.60;93.80;;;;;;5024873;28;20484;-57
2023/11/09 02:00:44;;;;;;;42.17;8.80;;;9.50;93.80;;;;;;5024925;28;20347;-57
2023/11/09 02:03:10;;;;;;;42.45;9.65;;;9.50;93.80;;;;;;5025332;28;20042;-57
2023/11/09 02:05:37;;;;;;;36.17;8.10;;;9.50;93.80;;;;;;5041376;28;20040;-57
2023/11/09 02:08:03;;;;;;;40.00;8.88;;;9.50;93.80;;;;;;5025007;28;20022;-58
2023/11/09 02:10:29;;;;;;;38.75;8.90;;;9.40;93.80;;;;;;5025069;28;20030;-57
2023/11/09 02:12:55;;;;;;;33.47;8.88;;;9.40;93.80;;;;;;5044950;28;20022;-57
2023/11/09 02:15:20;;;;;;;33.35;7.60;;;9.40;93.90;;;;;;5028377;28;20049;-58
2023/11/09 02:17:46;;;;;;;33.67;8.25;;;9.40;93.80;;;;;;5044954;28;20032;-57
2023/11/09 02:20:14;;;;;;;32.58;8.15;;;9.40;93.80;;;;;;5028258;28;20482;-57
2023/11/09 02:22:40;;;;;;;33.78;8.68;;;9.40;93.90;;;;;;5044437;28;20030;-57
2023/11/09 02:25:06;;;;;;;28.40;7.15;;;9.40;93.90;;;;;;5028018;28;20097;-57
2023/11/09 02:27:31;;;;;;;34.53;7.75;;;9.30;93.90;;;;;;5044565;28;20030;-57
2023/11/09 02:29:57;;;;;;;29.08;7.18;;;9.30;93.90;;;;;;5044753;28;20026;-57
2023/11/09 02:32:23;;;;;;;28.17;7.75;;;9.30;93.90;;;;;;5028245;28;20030;-57
2023/11/09 02:34:48;;;;;;;29.25;7.70;;;9.30;93.90;;;;;;5029625;28;20089;-57
2023/11/09 02:37:14;;;;;;;36.28;8.15;;;9.30;93.90;;;;;;5029233;28;20485;-57
2023/11/09 02:39:40;;;;;;;20.75;6.40;;;9.30;93.90;;;;;;5027976;28;20065;-57
2023/11/09 02:42:06;;;;;;;29.15;6.82;;;9.30;93.90;;;;;;5029001;28;20038;-57
2023/11/09 02:44:33;;;;;;;34.95;8.02;;;9.20;93.90;;;;;;5044318;28;20120;-57
2023/11/09 02:46:59;;;;;;;30.35;6.90;;;9.20;93.90;;;;;;5027950;28;20033;-57
2023/11/09 02:49:24;;;;;;;31.73;7.18;;;9.20;93.90;;;;;;5044404;28;20360;-57
2023/11/09 02:51:51;;;;;;;17.13;5.95;;;9.20;93.90;;;;;;5027654;28;20048;-57
2023/11/09 02:54:16;;;;;;;30.73;6.40;;;9.20;93.90;;;;;;5028784;28;20118;-57
2023/11/09 02:56:42;;;;;;;29.80;7.40;;;9.10;93.90;;;;;;5028775;28;20029;-57
2023/11/09 02:59:07;;;;;;;24.73;6.90;;;9.10;94.20;;;;;;5027483;28;20041;-56
2023/11/09 03:01:35;;;;;;;28.35;6.47;;;9.10;93.90;;;;;;5044291;28;20094;-57
2023/11/09 03:04:01;;;;;;;24.85;6.05;;;9.10;93.90;;;;;;5027615;28;20559;-56
2023/11/09 03:06:27;;;;;;;28.27;6.50;;;9.10;93.90;;;;;;5028860;28;20045;-57
2023/11/09 03:08:52;;;;;;;24.35;6.57;;;9.10;93.90;;;;;;5028803;28;20038;-57
2023/11/09 03:11:18;;;;;;;25.00;6.53;;;9.10;94.00;;;;;;5027309;28;20021;-57
2023/11/09 03:13:44;;;;;;;21.75;5.95;;;9.10;93.90;;;;;;5027214;28;20030;-57
2023/11/09 03:16:10;;;;;;;21.58;6.25;;;9.10;93.90;;;;;;5028527;28;20029;-57
2023/11/09 03:18:35;;;;;;;25.85;5.68;;;9.00;93.90;;;;;;5043729;28;20026;-57
2023/11/09 03:21:01;;;;;;;21.23;6.40;;;9.00;93.90;;;;;;5043733;28;20022;-57
2023/11/09 03:23:27;;;;;;;18.38;5.50;;;9.00;93.90;;;;;;5027848;28;20068;-57
2023/11/09 03:25:53;;;;;;;30.10;6.28;;;9.10;94.00;;;;;;5043760;28;20101;-57
2023/11/09 03:28:18;;;;;;;16.95;5.10;;;9.00;93.90;;;;;;5026832;28;20024;-57
2023/11/09 03:30:44;;;;;;;17.98;5.22;;;9.00;94.00;;;;;;5043586;28;20029;-57
2023/11/09 03:33:09;;;;;;;18.85;5.25;;;8.90;94.00;;;;;;5028185;28;20045;-57
2023/11/09 03:35:35;;;;;;;17.02;5.68;;;8.90;94.00;;;;;;5026959;28;20026;-57
2023/11/09 03:38:01;;;;;;;22.75;5.68;;;8.90;94.00;;;;;;5026887;28;20450;-57
2023/11/09 03:40:27;;;;;;;19.92;5.47;;;8.90;94.00;;;;;;5026912;28;20042;-57
2023/11/09 03:42:52;;;;;;;19.08;5.75;;;8.90;94.00;;;;;;5043200;28;20029;-57
2023/11/09 03:45:18;;;;;;;20.27;5.90;;;8.90;94.00;;;;;;5043110;28;20029;-57
2023/11/09 03:47:44;;;;;;;19.75;5.05;;;8.90;94.00;;;;;;5026813;28;20061;-57
2023/11/09 03:50:11;;;;;;;19.40;5.32;;;8.90;94.00;;;;;;5028169;28;20105;-57
2023/11/09 03:52:39;;;;;;;22.67;4.43;;;8.90;94.00;;;;;;5026843;28;20029;-57
2023/11/09 03:55:06;;;;;;;23.17;5.22;;;8.80;93.90;;;;;;5026839;28;20038;-57
2023/11/09 03:57:32;;;;;;;14.63;5.15;;;8.80;94.00;;;;;;5026528;28;20034;-57
2023/11/09 03:59:58;;;;;;;18.20;4.93;;;8.80;94.00;;;;;;5043004;28;20034;-57
2023/11/09 04:02:24;;;;;;;12.55;3.80;;;8.80;94.00;;;;;;5027651;28;20037;-57
2023/11/09 04:04:49;;;;;;;15.68;4.80;;;8.80;94.00;;;;;;5026176;28;20398;-57
2023/11/09 04:07:15;;;;;;;16.35;4.50;;;8.80;94.30;;;;;;5026154;28;20056;-57
2023/11/09 04:09:41;;;;;;;20.08;5.07;;;8.80;94.00;;;;;;5027684;28;20030;-57
2023/11/09 04:12:07;;;;;;;17.10;4.63;;;8.70;94.00;;;;;;5042692;28;20534;-58
2023/11/09 04:14:32;;;;;;;16.02;4.57;;;8.70;94.00;;;;;;5042495;28;20065;-57
2023/11/09 04:16:58;;;;;;;11.80;4.03;;;8.70;94.00;;;;;;5027487;28;20036;-57
2023/11/09 04:19:24;;;;;;;17.48;4.22;;;8.70;94.00;;;;;;5027432;28;20123;-57
2023/11/09 04:21:49;;;;;;;16.08;4.88;;;8.70;94.00;;;;;;5026039;28;20061;-57
2023/11/09 04:24:15;;;;;;;16.25;4.47;;;8.70;94.00;;;;;;5042251;28;20030;-57
2023/11/09 04:26:42;;;;;;;15.68;4.85;;;8.70;94.00;;;;;;5026149;28;20041;-57
2023/11/09 04:29:10;;;;;;;17.80;4.35;;;8.70;94.00;;;;;;5027236;28;20107;-57
2023/11/09 04:31:37;;;;;;;10.38;4.07;;;8.70;94.00;;;;;;5042132;28;20101;-57
2023/11/09 04:34:05;;;;;;;14.15;4.35;;;8.70;94.00;;;;;;5026706;28;20053;-57
2023/11/09 04:36:31;;;;;;;13.90;3.92;;;8.70;94.00;;;;;;5042057;28;20030;-57
2023/11/09 04:38:57;;;;;;;13.60;4.10;;;8.70;94.00;;;;;;5025672;28;20053;-57
2023/11/09 04:41:23;;;;;;;16.60;4.53;;;8.60;93.90;;;;;;5025883;28;20037;-57
2023/11/09 04:43:51;;;;;;;15.00;4.28;;;8.60;93.90;;;;;;5026938;28;20029;-57
2023/11/09 04:46:19;;;;;;;14.80;3.83;;;8.60;94.00;;;;;;5042016;28;20037;-57
2023/11/09 04:48:47;;;;;;;14.00;4.03;;;8.60;94.00;;;;;;5025570;28;20026;-57
2023/11/09 04:51:20;;;;;;;15.38;3.75;;;8.60;94.00;;;;;;5026985;28;20033;-57
2023/11/09 04:53:50;;;;;;;13.73;3.47;;;8.60;94.00;;;;;;5041207;28;20053;-57
2023/11/09 05:06:48;;;;;;;11.90;3.55;;;8.60;94.00;;;;;;5039602;28;20037;-57
2023/11/09 05:07:17;;;;;;;13.98;3.33;;;8.60;93.90;;;;;;5025571;28;20033;-57
2023/11/09 05:09:47;;;;;;;9.52;2.97;;;8.60;93.90;;;;;;5041869;28;20026;-57
2023/11/09 05:12:16;;;;;;;10.95;3.40;;;8.60;94.00;;;;;;5025318;28;20050;-57
2023/11/09 05:14:41;;;;;;;11.98;3.20;;;8.60;94.00;;;;;;5041670;28;20048;-57
2023/11/09 05:17:08;;;;;;;7.45;3.17;;;8.60;94.00;;;;;;5041955;28;20065;-57
2023/11/09 05:19:34;;;;;;;9.23;2.88;;;8.50;93.90;;;;;;5041480;28;20030;-57
2023/11/09 05:21:59;;;;;;;12.35;3.50;;;8.60;94.00;;;;;;5025107;28;20037;-57
2023/11/09 05:24:26;;;;;;;8.30;3.20;;;8.50;94.00;;;;;;5041338;28;20045;-57
2023/11/09 05:26:51;;;;;;;16.73;4.05;;;8.50;94.00;;;;;;5026261;28;20022;-57
2023/11/09 05:29:18;;;;;;;14.30;3.53;;;8.50;94.00;;;;;;5008527;28;20038;-57
2023/11/09 05:31:44;;;;;;;14.70;3.60;;;8.50;94.00;;;;;;5041450;28;20048;-57
2023/11/09 05:34:10;;;;;;;10.38;3.45;;;8.50;94.00;;;;;;5041231;28;20042;-57
2023/11/09 05:36:36;;;;;;;16.25;3.55;;;8.60;94.00;;;;;;5041528;28;20021;-57
2023/11/09 05:39:04;;;;;;;15.85;4.45;;;8.50;94.00;;;;;;5024670;28;20211;-57
2023/11/09 05:41:30;;;;;;;28.95;5.15;;;8.50;94.00;;;;;;5041228;28;20030;-57
2023/11/09 05:43:56;;;;;;;17.27;3.90;;;8.50;94.00;;;;;;5026210;28;20117;-56
2023/11/09 05:46:22;;;;;;;24.05;4.43;;;8.50;94.00;;;;;;5028637;28;20034;-57
2023/11/09 05:48:48;;;;;;;25.88;5.25;;;8.50;94.00;;;;;;5045367;28;20037;-57
2023/11/09 05:51:20;;;;;;;25.75;5.32;;;8.60;94.00;;;;;;5028986;28;20115;-57
2023/11/09 05:53:49;;;;;;;20.80;5.32;;;8.50;94.30;;;;;;5044417;28;20057;-57
2023/11/09 05:56:18;;;;;;;39.85;6.82;;;8.50;94.00;;;;;;5028683;28;20029;-57
2023/11/09 05:58:44;;;;;;;65.30;9.60;;;8.50;94.00;;;;;;5028658;28;20026;-57
2023/11/09 06:01:11;;;;;;;55.50;8.40;;;8.50;94.00;;;;;;5029925;28;20026;-57
2023/11/09 06:03:37;;;;;;;73.82;9.80;;;8.50;94.00;;;;;;5044822;28;20379;-57
2023/11/09 06:06:04;;;;;;;59.97;8.70;;;8.50;94.00;;;;;;5045078;28;20041;-57
2023/11/09 06:08:30;;;;;;;44.13;7.78;;;8.50;94.00;;;;;;5044988;28;20033;-57
2023/11/09 06:10:55;;;;;;;44.83;7.15;;;8.50;94.00;;;;;;5045066;28;20021;-57
2023/11/09 06:13:21;;;;;;;66.65;8.15;;;8.50;94.10;;;;;;5029618;28;20044;-57
2023/11/09 06:15:47;;;;;;;55.00;8.55;;;8.50;94.00;;;;;;5028064;28;20433;-57
2023/11/09 06:18:14;;;;;;;45.33;8.20;;;8.50;94.00;;;;;;5029518;28;20054;-57
2023/11/09 06:20:41;;;;;;;51.80;8.00;;;8.50;94.00;;;;;;5028154;28;20120;-57
2023/11/09 06:23:07;;;;;;;42.15;7.68;;;8.50;94.10;;;;;;5029578;28;20040;-57
2023/11/09 06:25:32;;;;;;;32.85;7.25;;;8.50;94.10;;;;;;5029466;28;20030;-57
2023/11/09 06:28:01;;;;;;;49.75;9.00;;;8.50;94.10;;;;;;5038028;28;20026;-57
2023/11/09 06:30:27;;;;;;;50.45;9.30;;;8.50;94.10;;;;;;5047771;28;20030;-57
2023/11/09 06:32:53;;;;;;;47.28;8.32;;;8.50;94.10;;;;;;5028000;28;20525;-57
2023/11/09 06:35:19;;;;;;;53.72;8.93;;;8.50;94.10;;;;;;5028095;28;20041;-57
2023/11/09 06:37:45;;;;;;;49.80;7.40;;;8.50;94.10;;;;;;5028042;28;20033;-55
2023/11/09 06:40:16;;;;;;;33.88;7.13;;;8.50;94.10;;;;;;5029389;28;20108;-57
2023/11/09 06:42:42;;;;;;;41.65;7.70;;;8.50;94.20;;;;;;5028076;28;20024;-57
2023/11/09 06:45:09;;;;;;;45.78;8.13;;;8.50;94.20;;;;;;5038836;28;20030;-57
2023/11/09 06:47:35;;;;;;;41.55;8.50;;;8.50;94.20;;;;;;5029527;28;20046;-57
2023/11/09 06:50:05;;;;;;;41.33;7.13;;;8.50;94.30;;;;;;5027721;28;20030;-57
2023/11/09 06:52:30;;;;;;;29.20;6.55;;;8.50;94.30;;;;;;5043785;28;20022;-57
2023/11/09 06:54:56;;;;;;;51.85;7.85;;;8.50;94.30;;;;;;5028989;28;20065;-57
2023/11/09 06:57:22;;;;;;;47.10;7.25;;;8.50;94.30;;;;;;5043692;28;20068;-57
2023/11/09 06:59:47;;;;;;;37.92;6.63;;;8.50;94.30;;;;;;5027521;28;20041;-57
2023/11/09 07:02:13;;;;;;;36.75;6.88;;;8.50;94.30;;;;;;5043838;28;20033;-57
2023/11/09 07:04:39;;;;;;;46.28;7.53;;;8.50;94.40;;;;;;5028685;28;20038;-57
2023/11/09 07:07:06;;;;;;;33.58;7.07;;;8.50;94.40;;;;;;5043887;28;20049;-57
2023/11/09 07:09:32;;;;;;;45.47;8.70;;;8.50;94.40;;;;;;5028468;28;20042;-57
2023/11/09 07:11:57;;;;;;;34.80;6.82;;;8.50;94.40;;;;;;5041666;28;20044;-57
2023/11/09 07:14:23;;;;;;;33.42;7.53;;;8.50;94.50;;;;;;5046534;28;20084;-57
2023/11/09 07:16:54;;;;;;;29.63;6.10;;;8.50;94.50;;;;;;5047675;28;20466;-57
2023/11/09 07:19:22;;;;;;;34.70;6.60;;;8.50;94.50;;;;;;5029843;28;20021;-57
2023/11/09 07:21:49;;;;;;;27.95;6.72;;;8.50;94.60;;;;;;5029574;28;20029;-57
2023/11/09 07:24:17;;;;;;;27.98;6.03;;;8.50;94.60;;;;;;5045494;28;20038;-57
2023/11/09 07:26:42;;;;;;;39.78;7.10;;;8.40;94.60;;;;;;5047080;28;20022;-57
2023/11/09 07:29:09;;;;;;;32.65;6.50;;;8.50;94.60;;;;;;5045701;28;20044;-57
2023/11/09 07:31:35;;;;;;;23.00;6.25;;;8.50;94.70;;;;;;5047713;28;20051;-57
2023/11/09 07:34:00;;;;;;;33.80;6.25;;;8.50;94.70;;;;;;5046655;28;20033;-57
2023/11/09 07:36:26;;;;;;;24.05;5.63;;;8.50;94.70;;;;;;5046518;28;20040;-57
2023/11/09 07:38:52;;;;;;;39.72;6.43;;;8.50;94.70;;;;;;5046476;28;20069;-57
2023/11/09 07:41:18;;;;;;;24.75;5.10;;;8.50;94.70;;;;;;5046940;28;20030;-57
2023/11/09 07:43:44;;;;;;;26.05;6.15;;;8.50;94.70;;;;;;5046260;28;20041;-57
2023/11/09 07:46:09;;;;;;;29.80;6.32;;;8.50;94.80;;;;;;5047476;28;20028;-57
2023/11/09 07:48:35;;;;;;;28.08;5.80;;;8.50;94.80;;;;;;5047072;28;20033;-57
2023/11/09 07:51:01;;;;;;;25.08;4.55;;;8.60;94.80;;;;;;5046276;28;20482;-57
2023/11/09 07:53:26;;;;;;;22.73;5.43;;;8.60;94.80;;;;;;5029477;28;20021;-57
2023/11/09 07:55:52;;;;;;;19.65;4.82;;;8.60;94.70;;;;;;5046180;28;20044;-57
2023/11/09 07:58:18;;;;;;;26.92;5.05;;;8.50;94.50;;;;;;5046969;28;20029;-57
2023/11/09 08:00:44;;;;;;;33.30;6.32;;;8.60;94.50;;;;;;5045818;28;20037;-57
2023/11/09 08:03:11;;;;;;;21.55;5.38;;;8.60;94.30;;;;;;5046959;28;20029;-57
2023/11/09 08:05:41;;;;;;;21.90;5.30;;;8.60;94.20;;;;;;5045240;28;20068;-57
2023/11/09 08:08:10;;;;;;;23.55;5.22;;;8.60;94.00;;;;;;5043891;28;20549;-57
2023/11/09 08:10:38;;;;;;;29.92;4.68;;;8.70;94.00;;;;;;5047317;28;20044;-57
2023/11/09 08:13:04;;;;;;;23.05;4.88;;;8.60;93.80;;;;;;5029067;28;20103;-57
2023/11/09 08:15:31;;;;;;;13.38;3.70;;;8.60;93.80;;;;;;5046947;28;20025;-57
2023/11/09 08:17:57;;;;;;;15.38;4.13;;;8.60;93.80;;;;;;5045588;28;20120;-57
2023/11/09 08:20:23;;;;;;;31.33;4.88;;;8.70;93.70;;;;;;5046812;28;20049;-57
2023/11/09 08:22:49;;;;;;;22.33;5.25;;;8.70;93.60;;;;;;5045778;28;20108;-57
2023/11/09 08:25:15;;;;;;;31.35;5.70;;;8.70;93.60;;;;;;5045846;28;20038;-57
2023/11/09 08:27:40;;;;;;;30.63;5.32;;;8.70;93.50;;;;;;5046670;28;20044;-57
2023/11/09 08:30:10;;;;;;;39.00;6.72;;;8.70;93.50;;;;;;5044909;28;20081;-57
2023/11/09 08:32:37;;;;;;;57.15;7.00;;;8.80;93.50;;;;;;5042723;28;20036;-57
2023/11/09 08:35:08;;;;;;;39.75;7.30;;;8.70;93.50;;;;;;5042114;28;20076;-57
2023/11/09 08:37:34;;;;;;;46.00;6.93;;;8.80;93.50;;;;;;5022872;28;20033;-57
2023/11/09 08:39:59;;;;;;;50.95;7.35;;;8.80;93.50;;;;;;5025069;28;20045;-57
2023/11/09 08:42:25;;;;;;;47.63;6.32;;;8.80;93.50;;;;;;5036329;28;20034;-57
2023/11/09 08:44:50;;;;;;;55.22;7.45;;;8.80;93.50;;;;;;5039436;28;20042;-57
2023/11/09 08:47:21;;;;;;;34.35;6.22;;;8.90;93.50;;;;;;5041104;28;20036;-57
2023/11/09 08:49:46;;;;;;;47.03;7.35;;;8.90;93.50;;;;;;5024917;28;20290;-57
2023/11/09 08:52:12;;;;;;;40.67;7.45;;;8.90;93.60;;;;;;5039373;28;20025;-57
2023/11/09 08:54:37;;;;;;;48.10;6.18;;;8.90;93.50;;;;;;5036137;28;20044;-57
2023/11/09 08:57:03;;;;;;;46.22;7.28;;;9.00;93.50;;;;;;5040758;28;20522;-57
2023/11/09 08:59:31;;;;;;;32.38;5.40;;;8.90;93.40;;;;;;5051566;28;20022;-57
2023/11/09 09:01:57;;;;;;;35.33;5.95;;;9.00;93.30;;;;;;5038307;28;20033;-57
2023/11/09 09:04:24;;;;;;;44.00;6.47;;;9.00;93.30;;;;;;5034994;28;20032;-57
2023/11/09 09:06:49;;;;;;;34.42;6.05;;;9.00;93.20;;;;;;5028942;28;20022;-57
2023/11/09 09:09:15;;;;;;;26.95;5.53;;;9.00;93.30;;;;;;5028293;28;20505;-57
2023/11/09 09:11:43;;;;;;;35.15;5.85;;;9.00;93.30;;;;;;5037936;28;20025;-57
2023/11/09 09:14:11;;;;;;;30.00;6.15;;;9.10;93.20;;;;;;5042318;28;20380;-57
2023/11/09 09:16:37;;;;;;;45.67;6.65;;;9.10;93.50;;;;;;5040466;28;20044;-57
2023/11/09 09:19:02;;;;;;;25.25;5.50;;;9.10;93.20;;;;;;5038613;28;20112;-57
2023/11/09 09:21:28;;;;;;;27.02;6.30;;;9.10;93.10;;;;;;5033443;28;20025;-57
2023/11/09 09:23:54;;;;;;;37.92;6.78;;;9.10;93.10;;;;;;5033444;28;20030;-57
2023/11/09 09:26:20;;;;;;;42.72;7.13;;;9.20;93.10;;;;;;5026808;28;20029;-57
2023/11/09 09:28:47;;;;;;;27.30;5.55;;;9.20;93.10;;;;;;5056145;28;20029;-57
2023/11/09 09:31:13;;;;;;;30.83;6.30;;;9.20;93.10;;;;;;5041601;28;20033;-57
2023/11/09 09:33:39;;;;;;;32.17;6.60;;;9.30;93.10;;;;;;5038669;28;20030;-57
2023/11/09 09:36:05;;;;;;;37.80;6.25;;;9.30;93.10;;;;;;5023848;28;20033;-57
2023/11/09 09:38:34;;;;;;;24.92;6.10;;;9.30;93.00;;;;;;5029473;28;20029;-56
2023/11/09 09:41:02;;;;;;;46.38;7.20;;;9.30;92.90;;;;;;5037075;28;20050;-57
2023/11/09 09:43:28;;;;;;;39.13;6.85;;;9.30;92.90;;;;;;5050650;28;20089;-57
2023/11/09 09:45:57;;;;;;;37.15;6.97;;;9.40;93.00;;;;;;5035842;28;20045;-57
2023/11/09 09:48:23;;;;;;;36.88;5.25;;;9.40;92.90;;;;;;5072479;28;20041;-57
2023/11/09 09:50:50;;;;;;;37.38;6.22;;;9.40;92.80;;;;;;5034200;28;20049;-57
2023/11/09 09:53:21;;;;;;;54.72;7.85;;;9.40;92.70;;;;;;5016011;28;20044;-57
2023/11/09 09:55:46;;;;;;;56.15;8.63;;;9.50;92.80;;;;;;5033244;28;20037;-57
2023/11/09 09:58:12;;;;;;;59.08;8.57;;;9.50;92.90;;;;;;5041642;28;20017;-57
2023/11/09 10:00:38;;;;;;;65.70;8.18;;;9.50;92.90;;;;;;5022634;28;20040;-57
2023/11/09 10:03:06;;;;;;;50.78;8.52;;;9.60;92.80;;;;;;5029180;28;20026;-57
2023/11/09 10:05:36;;;;;;;40.30;6.82;;;9.60;92.80;;;;;;5026848;28;20033;-57
2023/11/09 10:08:12;;;;;;;25.60;5.40;;;9.60;92.80;;;;;;5041599;28;20108;-57
2023/11/09 10:10:49;;;;;;;22.00;4.50;;;9.70;92.70;;;;;;5042830;28;20026;-57
2023/11/09 10:13:15;;;;;;;48.47;6.85;;;9.70;92.50;;;;;;5036246;28;20061;-57
2023/11/09 10:15:43;;;;;;;40.22;7.10;;;9.70;92.80;;;;;;5033800;28;20033;-57
2023/11/09 10:18:11;;;;;;;36.42;5.93;;;9.70;92.40;;;;;;5038768;28;20437;-57
2023/11/09 10:20:37;;;;;;;36.05;6.68;;;9.80;92.40;;;;;;5031278;28;20034;-57
2023/11/09 10:23:04;;;;;;;47.35;7.05;;;9.80;92.40;;;;;;5043505;28;20084;-57
2023/11/09 10:25:31;;;;;;;40.72;7.43;;;9.80;92.30;;;;;;5040655;28;20082;-57
2023/11/09 10:28:00;;;;;;;60.45;7.70;;;9.80;92.30;;;;;;5036304;28;20025;-57
2023/11/09 10:30:38;;;;;;;37.08;6.30;;;9.90;92.30;;;;;;5038525;28;20030;-57
2023/11/09 10:33:07;;;;;;;48.95;6.80;;;9.90;92.30;;;;;;5043586;28;20462;-57
2023/11/09 10:35:34;;;;;;;104.25;11.82;;;9.90;92.30;;;;;;5028241;28;20088;-57
2023/11/09 10:38:01;;;;;;;40.58;7.78;;;10.00;92.30;;;;;;5042841;28;20113;-57
2023/11/09 10:40:30;;;;;;;88.30;11.75;;;10.00;92.20;;;;;;5039879;28;20095;-57
2023/11/09 10:43:00;;;;;;;76.10;11.85;;;10.00;92.20;;;;;;5055816;28;20053;-56
2023/11/09 10:45:30;;;;;;;50.22;8.13;;;10.00;92.20;;;;;;5049381;28;20087;-57
2023/11/09 10:47:57;;;;;;;47.80;7.57;;;10.10;92.20;;;;;;5039941;28;20022;-57
2023/11/09 10:50:24;;;;;;;28.95;5.07;;;10.10;92.10;;;;;;5039885;28;20049;-57
2023/11/09 10:52:49;;;;;;;24.35;5.43;;;10.10;92.10;;;;;;5050175;28;20022;-56
2023/11/09 10:55:16;;;;;;;37.45;7.18;;;10.10;92.00;;;;;;5036394;28;20539;-57
2023/11/09 10:57:48;;;;;;;55.28;8.18;;;10.10;92.00;;;;;;5020418;28;20069;-57
2023/11/09 11:00:26;;;;;;;65.35;9.50;;;10.10;92.00;;;;;;5045241;28;20101;-57
2023/11/09 11:02:53;;;;;;;71.28;10.93;;;10.20;92.10;;;;;;5030079;28;20207;-56
2023/11/09 11:05:24;;;;;;;70.97;10.13;;;10.20;92.20;;;;;;5038276;28;20033;-56
2023/11/09 11:07:54;;;;;;;72.07;10.82;;;10.20;92.10;;;;;;5031483;28;20025;-57
2023/11/09 11:10:20;;;;;;;80.38;11.07;;;10.20;92.20;;;;;;5032982;28;20545;-56
2023/11/09 11:12:47;;;;;;;227.02;27.33;;;10.20;92.10;;;;;;5044629;28;20029;-60
2023/11/09 11:15:13;;;;;;;122.57;16.08;;;10.30;92.10;;;;;;5035601;28;22633;-57
2023/11/09 11:18:02;;;;;;;106.53;13.88;;;10.30;92.00;;;;;;5035509;28;20049;-57
2023/11/09 11:20:51;;;;;;;84.10;13.20;;;10.30;92.00;;;;;;5024657;28;20072;-57
2023/11/09 11:23:28;;;;;;;65.47;10.32;;;10.30;92.10;;;;;;5039300;28;20120;-57
2023/11/09 11:25:59;;;;;;;260.15;29.02;;;10.30;92.10;;;;;;5059771;28;20117;-57
2023/11/09 11:28:27;;;;;;;101.95;13.93;;;10.40;92.00;;;;;;5042410;28;20028;-57
2023/11/09 11:30:54;;;;;;;100.18;13.65;;;10.40;92.10;;;;;;5059132;28;20093;-57
2023/11/09 11:33:21;;;;;;;67.85;9.02;;;10.40;92.10;;;;;;5058984;28;20026;-57
2023/11/09 11:35:48;;;;;;;45.50;7.63;;;10.40;92.10;;;;;;5059138;28;20026;-57
2023/11/09 11:38:14;;;;;;;67.97;9.30;;;10.40;92.00;;;;;;5059095;28;20022;-57
2023/11/09 11:40:40;;;;;;;46.92;7.55;;;10.40;92.10;;;;;;5027911;28;20040;-56
2023/11/09 11:43:06;;;;;;;56.95;7.78;;;10.50;92.00;;;;;;5060653;28;20385;-57
2023/11/09 11:45:34;;;;;;;35.30;6.22;;;10.40;91.90;;;;;;5043505;28;20092;-56
2023/11/09 11:48:00;;;;;;;51.80;7.47;;;10.50;91.90;;;;;;5045612;28;20082;-57
2023/11/09 11:50:26;;;;;;;70.50;9.77;;;10.50;91.90;;;;;;5045515;28;20026;-57
2023/11/09 11:52:57;;;;;;;48.45;7.40;;;10.50;91.90;;;;;;5049848;28;20032;-57
2023/11/09 11:55:28;;;;;;;48.00;7.28;;;10.50;92.00;;;;;;5049656;28;20079;-57
2023/11/09 11:57:59;;;;;;;36.95;6.38;;;10.60;92.10;;;;;;5039534;28;20088;-57
2023/11/09 12:00:37;;;;;;;44.35;6.97;;;10.60;92.00;;;;;;5027440;28;20034;-57
2023/11/09 12:03:04;;;;;;;80.88;9.82;;;10.60;92.00;;;;;;5041789;28;20032;-57
2023/11/09 12:05:31;;;;;;;67.88;8.25;;;10.60;92.00;;;;;;5036186;28;20022;-57
2023/11/09 12:08:00;;;;;;;52.88;8.15;;;10.70;92.10;;;;;;5048818;28;20017;-57
2023/11/09 12:10:25;;;;;;;55.78;8.88;;;10.80;92.20;;;;;;5042654;28;20037;-57
2023/11/09 12:12:58;;;;;;;67.78;8.98;;;10.70;92.20;;;;;;5062743;28;20025;-57
2023/11/09 12:15:27;;;;;;;55.70;7.40;;;10.70;92.30;;;;;;5038845;28;20063;-57
2023/11/09 12:17:56;;;;;;;53.72;8.25;;;10.70;92.30;;;;;;5043677;28;20076;-57
2023/11/09 12:20:23;;;;;;;51.28;7.90;;;10.70;92.30;;;;;;5030275;28;20087;-57
2023/11/09 12:22:49;;;;;;;66.63;8.02;;;10.70;92.40;;;;;;5048053;28;20033;-57
2023/11/09 12:25:16;;;;;;;50.83;7.20;;;10.70;92.40;;;;;;5036179;28;20101;-57
2023/11/09 12:27:45;;;;;;;40.38;7.15;;;10.70;92.50;;;;;;5040827;28;20038;-57
2023/11/09 12:30:11;;;;;;;56.47;6.82;;;10.70;92.60;;;;;;5041534;28;20813;-57
2023/11/09 12:32:37;;;;;;;49.90;6.28;;;10.70;92.60;;;;;;5045812;28;20320;-57
2023/11/09 12:35:03;;;;;;;47.15;6.13;;;10.70;92.70;;;;;;5020494;28;20029;-57
2023/11/09 12:37:30;;;;;;;46.03;6.13;;;10.70;92.70;;;;;;5045976;28;20029;-57
2023/11/09 12:39:56;;;;;;;40.47;5.78;;;10.70;92.70;;;;;;5060818;28;20034;-57
2023/11/09 12:42:25;;;;;;;30.42;6.18;;;10.70;92.80;;;;;;5029618;28;20026;-58
2023/11/09 12:44:52;;;;;;;32.15;5.50;;;10.80;92.90;;;;;;5037653;28;20039;-57
2023/11/09 12:47:20;;;;;;;27.92;5.55;;;10.70;92.90;;;;;;5032221;28;20533;-57
2023/11/09 12:49:48;;;;;;;26.70;5.22;;;10.70;93.00;;;;;;5038256;28;20026;-57